Time;durP1;ratioP1;P1;durP2;ratioP2;P2;SDS_P1;SDS_P2;PMS_P1;PMS_P2;Temp;Humidity;BMP_temperature;BMP_pressure;BME280_temperature;BME280_humidity;BME280_pressure;Samples;Min_cycle;Max_cycle;Signal;HPM_P1;HPM_P2
2022/08/13 00:01:56;;;;;;;9.98;4.15;;;25.20;65.30;;;;;;5016623;28;20034;-73
2022/08/13 00:04:24;;;;;;;8.90;3.90;;;25.20;65.20;;;;;;5016548;28;20093;-76
2022/08/13 00:07:06;;;;;;;6.80;4.18;;;25.20;65.20;;;;;;5016525;28;20420;-74
2022/08/13 00:09:35;;;;;;;7.53;4.05;;;25.20;65.10;;;;;;5016600;28;20177;-74
2022/08/13 00:14:47;;;;;;;11.30;3.80;;;25.10;65.00;;;;;;5016493;28;20088;-76
2022/08/13 00:17:14;;;;;;;5.60;3.60;;;25.00;64.70;;;;;;5016471;28;20041;-76
2022/08/13 00:19:43;;;;;;;8.40;3.72;;;24.90;65.30;;;;;;5016628;28;20022;-75
2022/08/13 00:22:09;;;;;;;5.05;3.47;;;24.90;64.40;;;;;;5016139;28;20108;-78
2022/08/13 00:24:38;;;;;;;6.90;4.00;;;24.90;64.70;;;;;;5016136;28;20076;-73
2022/08/13 00:27:04;;;;;;;11.70;3.85;;;24.90;64.40;;;;;;5016031;28;20021;-76
2022/08/13 00:29:30;;;;;;;6.55;3.67;;;24.80;64.50;;;;;;5016282;28;20091;-76
2022/08/13 00:31:56;;;;;;;6.65;3.85;;;24.80;64.50;;;;;;5016078;28;20471;-75
2022/08/13 00:34:22;;;;;;;6.45;3.50;;;24.80;64.50;;;;;;5016207;28;20101;-76
2022/08/13 00:36:48;;;;;;;6.82;3.38;;;24.80;64.40;;;;;;5014542;28;20040;-75
2022/08/13 00:39:14;;;;;;;5.72;3.40;;;24.70;64.50;;;;;;5015825;28;20386;-75
2022/08/13 00:41:45;;;;;;;5.40;3.50;;;24.70;64.40;;;;;;5016105;28;20026;-75
2022/08/13 00:44:14;;;;;;;6.90;3.40;;;24.70;64.40;;;;;;5016551;28;20348;-75
2022/08/13 00:46:41;;;;;;;8.07;4.18;;;24.70;64.50;;;;;;5015831;28;20057;-75
2022/08/13 00:49:09;;;;;;;6.18;3.30;;;24.70;64.10;;;;;;5030924;28;20022;-74
2022/08/13 00:51:36;;;;;;;6.38;3.47;;;24.70;64.10;;;;;;5015971;28;20052;-75
2022/08/13 00:54:14;;;;;;;5.38;3.55;;;24.70;64.20;;;;;;5015897;28;20156;-77
2022/08/13 00:56:40;;;;;;;7.47;3.90;;;24.60;64.30;;;;;;5015411;28;20511;-76
2022/08/13 00:59:11;;;;;;;8.77;3.28;;;24.60;63.90;;;;;;5015590;28;20391;-75
2022/08/13 01:01:39;;;;;;;6.15;3.03;;;24.60;63.70;;;;;;5015447;28;20030;-76
2022/08/13 01:04:07;;;;;;;4.63;2.70;;;24.60;63.60;;;;;;5015239;28;20022;-76
2022/08/13 01:06:33;;;;;;;5.55;2.78;;;24.60;63.60;;;;;;5014045;28;20030;-75
2022/08/13 01:09:00;;;;;;;7.47;3.45;;;24.50;63.60;;;;;;5015536;28;20498;-77
2022/08/13 01:11:30;;;;;;;7.15;2.88;;;24.40;63.60;;;;;;5015421;28;20038;-75
2022/08/13 01:13:58;;;;;;;9.15;3.50;;;24.30;63.70;;;;;;5015920;28;20022;-76
2022/08/13 01:16:27;;;;;;;6.45;2.67;;;24.20;63.90;;;;;;5015245;28;20076;-76
2022/08/13 01:18:53;;;;;;;7.07;3.10;;;24.10;64.00;;;;;;5015203;28;20050;-76
2022/08/13 01:21:23;;;;;;;5.40;2.80;;;24.10;64.10;;;;;;5015336;28;20495;-76
2022/08/13 01:23:53;;;;;;;5.72;2.88;;;24.10;64.10;;;;;;5015904;28;20101;-77
2022/08/13 01:26:20;;;;;;;6.47;3.03;;;24.10;63.90;;;;;;5015009;28;20022;-75
2022/08/13 01:28:50;;;;;;;5.00;2.95;;;24.20;64.10;;;;;;5015049;28;20065;-76
2022/08/13 01:31:18;;;;;;;8.48;3.30;;;24.10;63.70;;;;;;5014858;28;20021;-75
2022/08/13 01:33:48;;;;;;;5.50;2.90;;;24.10;63.60;;;;;;5015014;28;20037;-75
2022/08/13 01:36:16;;;;;;;8.30;2.78;;;24.10;63.90;;;;;;5014973;28;20340;-75
2022/08/13 01:38:42;;;;;;;6.80;2.75;;;24.10;63.90;;;;;;5014833;28;20455;-76
2022/08/13 01:41:10;;;;;;;5.32;2.60;;;24.10;63.80;;;;;;5014933;28;20061;-75
2022/08/13 01:43:38;;;;;;;7.07;3.00;;;24.10;63.80;;;;;;5014750;28;20064;-75
2022/08/13 01:46:06;;;;;;;7.82;2.83;;;24.10;63.60;;;;;;5014551;28;20061;-76
2022/08/13 01:51:22;;;;;;;4.13;2.63;;;24.10;63.60;;;;;;5014937;28;20041;-72
2022/08/13 01:53:50;;;;;;;6.95;2.60;;;24.00;63.40;;;;;;5014664;28;20486;-76
2022/08/13 01:56:21;;;;;;;7.95;2.80;;;24.00;63.50;;;;;;5014458;28;20097;-75
2022/08/13 01:58:57;;;;;;;4.25;2.60;;;23.90;63.30;;;;;;5014705;28;20014;-74
2022/08/13 02:01:25;;;;;;;5.57;2.70;;;23.90;63.20;;;;;;5014274;28;20038;-75
2022/08/13 02:03:56;;;;;;;7.45;2.90;;;23.90;63.40;;;;;;5014583;28;20044;-76
2022/08/13 02:06:30;;;;;;;9.00;2.78;;;23.90;63.10;;;;;;5014228;28;20487;-75
2022/08/13 02:08:59;;;;;;;8.30;3.22;;;23.90;63.40;;;;;;5014655;28;20100;-75
2022/08/13 02:11:32;;;;;;;7.20;2.80;;;23.90;63.30;;;;;;5014298;28;20030;-76
2022/08/13 02:14:02;;;;;;;6.82;2.90;;;23.90;63.20;;;;;;5014405;28;20022;-76
2022/08/13 02:16:30;;;;;;;7.32;2.92;;;23.80;63.30;;;;;;5013195;28;20034;-75
2022/08/13 02:18:56;;;;;;;8.65;2.90;;;23.90;63.40;;;;;;5014032;28;20026;-75
2022/08/13 02:21:25;;;;;;;7.85;2.53;;;23.90;63.30;;;;;;5029207;28;20040;-76
2022/08/13 02:23:58;;;;;;;4.28;2.80;;;23.90;63.30;;;;;;5013997;28;20029;-76
2022/08/13 02:26:27;;;;;;;;;;;24.00;63.20;;;;;;5014597;28;20030;-76
2022/08/13 02:28:54;;;;;;;5.47;2.83;;;23.90;63.10;;;;;;5014278;28;19949;-76
2022/08/13 02:31:21;;;;;;;5.72;3.00;;;23.90;63.40;;;;;;5014116;28;20105;-77
2022/08/13 02:33:47;;;;;;;5.07;2.75;;;24.00;63.20;;;;;;5012921;28;20129;-75
2022/08/13 02:36:14;;;;;;;7.65;3.10;;;24.00;63.30;;;;;;5013851;28;20109;-75
2022/08/13 02:38:43;;;;;;;7.88;2.97;;;23.90;63.40;;;;;;5013837;28;20079;-75
2022/08/13 02:43:54;;;;;;;12.20;3.40;;;23.90;63.70;;;;;;5014132;28;20044;-76
2022/08/13 02:46:21;;;;;;;5.97;3.10;;;23.90;63.50;;;;;;5013677;28;20033;-74
2022/08/13 02:48:49;;;;;;;6.20;3.10;;;24.00;63.70;;;;;;5013715;28;20533;-76
2022/08/13 02:51:15;;;;;;;8.23;3.22;;;24.00;63.40;;;;;;5013600;28;20379;-76
2022/08/13 02:53:42;;;;;;;5.00;3.28;;;24.00;63.40;;;;;;5013839;28;20101;-77
2022/08/13 02:56:10;;;;;;;6.30;3.22;;;23.90;63.60;;;;;;5013316;28;20127;-76
2022/08/13 02:58:36;;;;;;;6.20;3.30;;;23.90;63.70;;;;;;5014026;28;20487;-76
2022/08/13 03:01:03;;;;;;;9.02;3.20;;;23.90;63.90;;;;;;5013611;28;20038;-74
2022/08/13 03:03:31;;;;;;;5.72;3.35;;;24.00;63.60;;;;;;5013460;28;20144;-75
2022/08/13 03:05:57;;;;;;;6.97;3.00;;;24.00;63.50;;;;;;5013309;28;20068;-75
2022/08/13 03:08:23;;;;;;;5.88;3.00;;;24.00;63.60;;;;;;5013428;28;20054;-75
2022/08/13 03:10:50;;;;;;;6.55;3.17;;;24.00;63.70;;;;;;5013484;28;20022;-75
2022/08/13 03:13:21;;;;;;;5.47;2.70;;;24.00;63.70;;;;;;5013126;28;20431;-75
2022/08/13 03:15:52;;;;;;;10.07;3.10;;;24.00;63.70;;;;;;5013067;28;20026;-78
2022/08/13 03:18:18;;;;;;;6.05;3.28;;;24.00;63.80;;;;;;5013181;28;20073;-76
2022/08/13 03:20:44;;;;;;;9.65;3.33;;;24.00;63.60;;;;;;5013298;28;20061;-73
2022/08/13 03:23:10;;;;;;;6.30;2.88;;;24.00;63.60;;;;;;5013056;28;20487;-75
2022/08/13 03:25:36;;;;;;;5.85;2.60;;;23.90;63.80;;;;;;5012982;28;20022;-75
2022/08/13 03:28:04;;;;;;;8.00;3.08;;;23.90;63.60;;;;;;5014561;28;20045;-74
2022/08/13 03:30:33;;;;;;;6.50;3.05;;;23.90;63.90;;;;;;5017220;28;20069;-75
2022/08/13 03:33:11;;;;;;;6.03;3.20;;;23.90;63.70;;;;;;5017068;28;20061;-76
2022/08/13 03:35:38;;;;;;;6.15;2.90;;;23.90;63.60;;;;;;5016963;28;20034;-76
2022/08/13 03:38:06;;;;;;;7.88;4.03;;;23.90;63.70;;;;;;5017060;28;20025;-76
2022/08/13 03:43:19;;;;;;;7.40;2.90;;;23.80;63.70;;;;;;5017435;28;20410;-76
2022/08/13 03:45:44;;;;;;;4.90;3.10;;;23.60;64.00;;;;;;5016896;28;20483;-78
2022/08/13 03:48:13;;;;;;;14.50;3.50;;;23.40;64.50;;;;;;5016795;28;20021;-78
2022/08/13 03:50:43;;;;;;;16.95;4.53;;;23.20;66.70;;;;;;5016748;28;20112;-74
2022/08/13 03:53:09;;;;;;;8.18;3.25;;;22.70;74.10;;;;;;5016633;28;20034;-76
2022/08/13 03:55:37;;;;;;;10.43;4.15;;;21.90;82.10;;;;;;5041061;22;20085;-72
2022/08/13 03:58:05;;;;;;;18.38;5.85;;;21.40;85.00;;;;;;5063580;28;20041;-73
2022/08/13 04:00:33;;;;;;;15.50;6.38;;;21.20;90.10;;;;;;5057581;28;20111;-73
2022/08/13 04:03:00;;;;;;;10.95;6.03;;;21.20;91.30;;;;;;5057026;28;20100;-74
2022/08/13 04:05:26;;;;;;;12.00;6.05;;;21.10;93.10;;;;;;5055509;28;20057;-72
2022/08/13 04:07:52;;;;;;;13.50;5.35;;;21.10;94.40;;;;;;5056997;28;20044;-72
2022/08/13 04:10:19;;;;;;;11.43;5.38;;;21.10;95.70;;;;;;5056833;28;20021;-73
2022/08/13 04:12:46;;;;;;;13.10;5.57;;;21.10;95.70;;;;;;5056860;28;20124;-74
2022/08/13 04:15:12;;;;;;;9.63;4.80;;;21.10;96.00;;;;;;5056593;28;20032;-72
2022/08/13 04:17:38;;;;;;;8.65;4.80;;;21.10;96.70;;;;;;5056635;28;20033;-73
2022/08/13 04:20:09;;;;;;;11.55;4.72;;;21.00;96.80;;;;;;5056431;28;20029;-74
2022/08/13 04:22:39;;;;;;;11.45;5.10;;;21.10;97.20;;;;;;5055562;28;20123;-73
2022/08/13 04:25:06;;;;;;;10.05;5.03;;;21.10;96.90;;;;;;5056101;28;20529;-74
2022/08/13 04:27:34;;;;;;;9.52;4.72;;;21.10;97.20;;;;;;5055976;28;20102;-72
2022/08/13 04:30:03;;;;;;;9.23;4.93;;;21.30;97.10;;;;;;5056132;28;20047;-74
2022/08/13 04:32:28;;;;;;;9.85;4.35;;;21.40;97.30;;;;;;5056002;28;20063;-74
2022/08/13 04:34:54;;;;;;;6.68;3.88;;;21.50;97.00;;;;;;5055781;28;20401;-73
2022/08/13 04:37:22;;;;;;;7.63;4.40;;;21.50;96.50;;;;;;5054755;28;20112;-74
2022/08/13 04:39:52;;;;;;;12.20;4.70;;;21.50;96.40;;;;;;5054852;28;20382;-74
2022/08/13 04:42:18;;;;;;;9.00;4.78;;;21.50;96.40;;;;;;5056056;28;20458;-74
2022/08/13 04:44:44;;;;;;;8.80;4.78;;;21.60;96.10;;;;;;5055909;28;20036;-74
2022/08/13 04:47:09;;;;;;;12.73;4.53;;;21.60;96.10;;;;;;5055706;28;20546;-73
2022/08/13 04:49:35;;;;;;;8.20;4.28;;;21.60;95.90;;;;;;5055621;28;20482;-74
2022/08/13 04:52:01;;;;;;;10.02;4.25;;;21.60;95.80;;;;;;5054367;28;20115;-73
2022/08/13 04:54:28;;;;;;;8.20;4.38;;;21.60;95.80;;;;;;5054414;28;20029;-74
2022/08/13 04:56:54;;;;;;;7.53;4.63;;;21.60;95.80;;;;;;5055331;28;20072;-73
2022/08/13 04:59:22;;;;;;;9.48;4.65;;;21.70;95.80;;;;;;5055613;28;20025;-74
2022/08/13 05:01:48;;;;;;;8.60;4.30;;;21.70;95.70;;;;;;5055615;28;20059;-73
2022/08/13 05:04:15;;;;;;;9.68;4.38;;;21.70;95.40;;;;;;5054214;28;20031;-73
2022/08/13 05:06:42;;;;;;;11.90;5.13;;;21.70;95.50;;;;;;5054044;28;20025;-73
2022/08/13 05:09:08;;;;;;;8.75;4.65;;;21.90;95.70;;;;;;5054090;28;20025;-73
2022/08/13 05:11:34;;;;;;;8.50;4.57;;;22.10;95.60;;;;;;5055166;28;20563;-74
2022/08/13 05:14:00;;;;;;;9.32;4.97;;;22.20;95.30;;;;;;5055239;28;20029;-74
2022/08/13 05:16:25;;;;;;;8.88;3.90;;;22.30;94.90;;;;;;5055075;28;20100;-73
2022/08/13 05:18:53;;;;;;;12.27;4.88;;;22.40;94.60;;;;;;5055156;28;20462;-73
2022/08/13 05:21:23;;;;;;;6.90;4.07;;;22.60;94.30;;;;;;5054010;28;20044;-72
2022/08/13 05:23:53;;;;;;;8.60;4.45;;;22.60;93.80;;;;;;5054047;28;20040;-73
2022/08/13 05:26:24;;;;;;;9.68;4.25;;;22.50;93.90;;;;;;5055166;28;20021;-73
2022/08/13 05:28:50;;;;;;;8.90;4.70;;;22.50;94.10;;;;;;5053773;28;20021;-72
2022/08/13 05:31:19;;;;;;;6.95;4.05;;;22.50;93.90;;;;;;5054994;28;20427;-73
2022/08/13 05:33:45;;;;;;;8.95;4.40;;;22.50;93.90;;;;;;5053653;28;20112;-73
2022/08/13 05:36:13;;;;;;;7.75;4.07;;;22.40;93.80;;;;;;5055036;28;20040;-72
2022/08/13 05:38:40;;;;;;;5.43;3.40;;;22.50;93.90;;;;;;5053519;28;20120;-72
2022/08/13 05:41:07;;;;;;;9.50;3.97;;;22.50;93.60;;;;;;5054720;28;20420;-72
2022/08/13 05:43:36;;;;;;;7.25;4.03;;;22.50;93.60;;;;;;5054852;28;20040;-72
2022/08/13 05:46:05;;;;;;;9.98;4.13;;;22.50;93.50;;;;;;5054877;28;20036;-72
2022/08/13 05:48:34;;;;;;;7.30;3.72;;;22.50;93.30;;;;;;5054842;28;20032;-73
2022/08/13 05:51:03;;;;;;;6.22;4.03;;;22.40;93.40;;;;;;5054633;28;20380;-73
2022/08/13 05:53:30;;;;;;;8.55;4.07;;;22.30;93.40;;;;;;5054602;28;20382;-73
2022/08/13 05:55:56;;;;;;;9.75;4.22;;;22.30;93.50;;;;;;5054454;28;20048;-73
2022/08/13 05:58:23;;;;;;;8.93;3.95;;;22.30;93.70;;;;;;5054468;28;20033;-73
2022/08/13 06:03:36;;;;;;;12.50;4.20;;;22.40;93.70;;;;;;5054835;28;20512;-72
2022/08/13 06:06:05;;;;;;;5.95;3.92;;;22.40;93.60;;;;;;5054308;28;20037;-72
2022/08/13 06:08:35;;;;;;;16.10;6.85;;;22.40;93.70;;;;;;5054100;28;20025;-72
2022/08/13 06:11:06;;;;;;;10.23;4.32;;;22.30;93.70;;;;;;5054466;28;20025;-72
2022/08/13 06:13:33;;;;;;;7.40;3.88;;;22.30;94.40;;;;;;5054323;28;20021;-73
2022/08/13 06:16:00;;;;;;;6.20;3.60;;;22.30;94.10;;;;;;5059900;28;20021;-73
2022/08/13 06:18:29;;;;;;;8.02;3.78;;;22.30;93.90;;;;;;5063963;28;20029;-73
2022/08/13 06:20:56;;;;;;;9.15;3.78;;;22.30;93.60;;;;;;5056735;28;20025;-73
2022/08/13 06:23:27;;;;;;;5.97;3.65;;;22.30;93.40;;;;;;5054867;28;20504;-72
2022/08/13 06:25:54;;;;;;;7.93;3.75;;;22.10;93.40;;;;;;5052772;28;20500;-73
2022/08/13 06:28:23;;;;;;;6.90;3.72;;;22.00;93.90;;;;;;5052514;28;20421;-73
2022/08/13 06:30:53;;;;;;;8.32;3.80;;;22.00;93.80;;;;;;5054087;28;20058;-73
2022/08/13 06:33:21;;;;;;;6.93;3.60;;;21.90;93.80;;;;;;5052463;28;20550;-73
2022/08/13 06:35:51;;;;;;;7.93;3.50;;;21.90;93.90;;;;;;5053915;28;20025;-72
2022/08/13 06:38:19;;;;;;;8.60;3.70;;;21.90;93.70;;;;;;5054068;28;20032;-73
2022/08/13 06:40:46;;;;;;;8.50;3.70;;;21.90;93.80;;;;;;5053658;28;20478;-74
2022/08/13 06:43:16;;;;;;;7.63;3.90;;;21.80;93.70;;;;;;5054036;28;20032;-73
2022/08/13 06:45:42;;;;;;;6.35;3.85;;;21.70;93.80;;;;;;5053995;28;20116;-72
2022/08/13 06:48:09;;;;;;;8.35;3.78;;;21.70;94.10;;;;;;5053657;28;20044;-74
2022/08/13 06:50:37;;;;;;;8.15;3.80;;;21.90;94.20;;;;;;5053564;28;20431;-72
2022/08/13 06:53:07;;;;;;;7.50;3.92;;;21.90;94.00;;;;;;5052166;28;20029;-73
2022/08/13 06:55:36;;;;;;;6.32;3.60;;;22.10;94.00;;;;;;5053349;28;20055;-73
2022/08/13 06:58:08;;;;;;;8.48;4.03;;;22.10;93.90;;;;;;5053108;28;20470;-72
2022/08/13 07:00:36;;;;;;;7.40;3.40;;;22.20;94.10;;;;;;5052556;28;20043;-71
2022/08/13 07:03:02;;;;;;;9.57;4.82;;;22.30;93.70;;;;;;5052792;28;20021;-74
2022/08/13 07:05:41;;;;;;;7.28;4.13;;;22.30;93.90;;;;;;5052880;28;20098;-73
2022/08/13 07:08:08;;;;;;;10.32;4.40;;;22.40;94.30;;;;;;5053137;28;20017;-74
2022/08/13 07:10:36;;;;;;;8.30;4.20;;;22.40;94.20;;;;;;5053013;28;20490;-73
2022/08/13 07:13:05;;;;;;;6.90;4.15;;;22.40;94.30;;;;;;5053095;28;20029;-74
2022/08/13 07:15:31;;;;;;;9.80;4.07;;;22.50;94.00;;;;;;5053041;28;20029;-75
2022/08/13 07:17:58;;;;;;;9.25;4.25;;;22.50;93.90;;;;;;5052916;28;20025;-73
2022/08/13 07:20:25;;;;;;;12.13;4.85;;;22.60;93.80;;;;;;5051458;28;20037;-74
2022/08/13 07:22:53;;;;;;;10.27;4.22;;;22.50;93.50;;;;;;5052843;28;20036;-74
2022/08/13 07:25:26;;;;;;;9.25;4.90;;;22.50;93.80;;;;;;5051903;28;20025;-75
2022/08/13 07:27:52;;;;;;;9.13;4.82;;;22.50;94.40;;;;;;5053119;28;20131;-73
2022/08/13 07:30:19;;;;;;;9.80;5.78;;;22.50;94.10;;;;;;5053050;28;20422;-75
2022/08/13 07:32:45;;;;;;;8.85;4.40;;;22.50;94.00;;;;;;5053204;28;20044;-74
2022/08/13 07:35:11;;;;;;;6.97;4.70;;;22.70;93.70;;;;;;5052685;28;20025;-75
2022/08/13 07:37:39;;;;;;;7.53;4.90;;;22.90;93.40;;;;;;5053026;28;20036;-73
2022/08/13 07:40:09;;;;;;;10.80;5.00;;;23.10;92.80;;;;;;5052442;28;20469;-74
2022/08/13 07:42:41;;;;;;;8.60;4.50;;;23.10;92.90;;;;;;5052469;28;20033;-74
2022/08/13 07:45:09;;;;;;;10.63;4.80;;;23.10;92.60;;;;;;5052268;28;20025;-74
2022/08/13 07:47:37;;;;;;;7.70;4.85;;;23.30;92.50;;;;;;5052344;28;20029;-74
2022/08/13 07:50:10;;;;;;;7.80;4.45;;;23.30;92.10;;;;;;5051118;28;20090;-74
2022/08/13 07:52:37;;;;;;;10.50;4.95;;;23.40;91.90;;;;;;5052440;28;20060;-74
2022/08/13 07:55:05;;;;;;;8.18;4.70;;;23.50;91.70;;;;;;5050993;28;20028;-75
2022/08/13 07:57:32;;;;;;;8.75;5.07;;;23.50;91.60;;;;;;5050769;28;20041;-73
2022/08/13 07:59:58;;;;;;;11.50;5.88;;;23.40;91.60;;;;;;5052205;28;20537;-74
2022/08/13 08:02:26;;;;;;;13.63;7.00;;;23.60;91.80;;;;;;5052098;28;20025;-73
2022/08/13 08:04:56;;;;;;;16.05;11.40;;;23.70;91.50;;;;;;5052219;28;20032;-75
2022/08/13 08:07:25;;;;;;;15.88;12.38;;;23.80;91.20;;;;;;5052148;28;20025;-74
2022/08/13 08:09:54;;;;;;;17.90;10.52;;;23.90;91.20;;;;;;5052226;28;20033;-74
2022/08/13 08:12:35;;;;;;;14.07;8.80;;;24.10;91.00;;;;;;5050832;28;20049;-74
2022/08/13 08:15:08;;;;;;;14.48;8.65;;;24.20;90.70;;;;;;5054756;28;20025;-74
2022/08/13 08:17:34;;;;;;;9.80;6.88;;;24.40;90.90;;;;;;5055942;28;20028;-74
2022/08/13 08:20:00;;;;;;;11.77;6.78;;;24.60;90.30;;;;;;5055978;28;20037;-75
2022/08/13 08:25:51;;;;;;;8.80;5.63;;;24.50;90.20;;;;;;5055678;28;20035;-75
2022/08/13 08:28:19;;;;;;;7.97;5.53;;;24.30;90.10;;;;;;5055985;28;20046;-75
2022/08/13 08:30:51;;;;;;;10.55;5.85;;;24.20;90.40;;;;;;5055516;28;20363;-76
2022/08/13 08:33:25;;;;;;;9.05;6.10;;;24.00;90.60;;;;;;5055779;28;20480;-74
2022/08/13 08:35:53;;;;;;;8.68;6.40;;;24.00;91.00;;;;;;5055226;28;20112;-73
2022/08/13 08:43:51;;;;;;;10.45;6.80;;;23.80;91.30;;;;;;5055901;28;20056;-76
2022/08/13 08:46:17;;;;;;;12.18;7.45;;;23.90;91.60;;;;;;5054586;28;20033;-74
2022/08/13 08:48:43;;;;;;;8.93;6.95;;;24.00;91.50;;;;;;5057180;28;20108;-76
2022/08/13 08:51:10;;;;;;;10.00;6.55;;;24.10;91.40;;;;;;5055738;28;20490;-74
2022/08/13 08:53:35;;;;;;;10.10;6.65;;;24.10;91.20;;;;;;5055436;28;20064;-76
2022/08/13 08:56:04;;;;;;;9.27;6.50;;;24.10;91.00;;;;;;5055313;28;20048;-75
2022/08/13 08:58:34;;;;;;;8.00;6.43;;;24.20;90.80;;;;;;5055415;28;20154;-74
2022/08/13 09:01:00;;;;;;;8.07;5.53;;;24.20;90.60;;;;;;5055259;28;20071;-74
2022/08/13 09:03:27;;;;;;;11.48;6.28;;;24.30;90.80;;;;;;5056305;28;20017;-74
2022/08/13 09:05:55;;;;;;;9.07;5.97;;;24.40;90.70;;;;;;5056093;28;20061;-75
2022/08/13 09:08:24;;;;;;;9.60;6.07;;;24.40;90.30;;;;;;5055186;28;20029;-76
2022/08/13 09:10:52;;;;;;;9.15;5.93;;;24.50;90.30;;;;;;5055259;28;20025;-74
2022/08/13 09:13:21;;;;;;;8.18;5.78;;;24.50;90.00;;;;;;5054181;28;20032;-75
2022/08/13 09:15:48;;;;;;;8.13;4.90;;;24.50;90.10;;;;;;5055383;28;20087;-74
2022/08/13 09:18:18;;;;;;;7.22;5.28;;;24.50;89.20;;;;;;5055230;28;20018;-77
2022/08/13 09:20:44;;;;;;;8.35;4.88;;;24.50;90.20;;;;;;5055324;28;20037;-75
2022/08/13 09:23:13;;;;;;;7.28;3.90;;;24.60;90.00;;;;;;5055651;28;20017;-74
2022/08/13 09:25:46;;;;;;;10.02;4.85;;;24.70;88.90;;;;;;5054939;28;20029;-74
2022/08/13 09:28:15;;;;;;;7.85;4.43;;;24.70;88.50;;;;;;5055986;28;20109;-75
2022/08/13 09:30:45;;;;;;;9.07;4.32;;;24.70;88.50;;;;;;5053751;28;20107;-74
2022/08/13 09:33:12;;;;;;;5.68;3.90;;;24.80;88.10;;;;;;5055171;28;20024;-74
2022/08/13 09:35:39;;;;;;;7.88;3.90;;;24.80;87.30;;;;;;5054699;28;20070;-75
2022/08/13 09:38:06;;;;;;;7.30;4.07;;;24.90;86.60;;;;;;5055046;28;20021;-73
2022/08/13 09:40:38;;;;;;;7.20;3.80;;;24.90;85.80;;;;;;5054664;28;20517;-75
2022/08/13 09:43:21;;;;;;;6.38;3.72;;;24.90;85.80;;;;;;5054451;28;20021;-74
2022/08/13 09:45:48;;;;;;;8.05;5.00;;;25.00;85.80;;;;;;5054461;28;20040;-75
2022/08/13 09:48:15;;;;;;;8.77;4.60;;;25.20;86.70;;;;;;5054659;28;20070;-75
2022/08/13 09:50:41;;;;;;;8.90;5.10;;;25.30;86.60;;;;;;5054529;28;20033;-75
2022/08/13 09:53:07;;;;;;;6.38;4.55;;;25.40;86.50;;;;;;5054406;28;20051;-74
2022/08/13 09:55:37;;;;;;;8.20;4.78;;;25.40;87.10;;;;;;5054280;28;20053;-74
2022/08/13 09:58:04;;;;;;;9.05;5.90;;;25.50;86.30;;;;;;5053227;28;20033;-74
2022/08/13 10:00:31;;;;;;;8.48;5.40;;;25.50;86.60;;;;;;5054854;28;20064;-74
2022/08/13 10:02:59;;;;;;;7.55;5.22;;;25.70;86.20;;;;;;5055331;28;20107;-74
2022/08/13 10:05:26;;;;;;;7.50;5.05;;;25.70;85.80;;;;;;5055111;28;20021;-73
2022/08/13 10:07:53;;;;;;;7.70;4.47;;;25.80;88.20;;;;;;5055125;28;20486;-76
2022/08/13 10:10:21;;;;;;;6.40;4.50;;;25.80;84.90;;;;;;5056480;28;20021;-73
2022/08/13 10:12:46;;;;;;;6.72;4.43;;;25.90;84.70;;;;;;5058048;28;20075;-73
2022/08/13 10:15:13;;;;;;;8.00;4.93;;;26.00;85.20;;;;;;5055563;28;20033;-73
2022/08/13 10:18:02;;;;;;;8.38;4.57;;;26.10;83.90;;;;;;5054650;28;20025;-74
2022/08/13 10:20:37;;;;;;;6.93;4.28;;;26.20;83.90;;;;;;5054245;28;20134;-75
2022/08/13 10:23:10;;;;;;;6.80;4.50;;;26.30;82.10;;;;;;5054548;28;20067;-75
2022/08/13 10:25:40;;;;;;;7.47;4.07;;;26.40;82.50;;;;;;5054839;28;20474;-75
2022/08/13 10:28:17;;;;;;;6.45;4.00;;;26.50;81.90;;;;;;5054756;28;20017;-73
2022/08/13 10:30:43;;;;;;;6.07;3.80;;;26.60;81.40;;;;;;5054597;28;20108;-73
2022/08/13 10:33:11;;;;;;;8.07;3.72;;;26.60;79.90;;;;;;5052923;28;20093;-73
2022/08/13 10:35:37;;;;;;;6.25;3.47;;;26.70;79.40;;;;;;5054580;28;20024;-73
2022/08/13 10:38:05;;;;;;;4.53;3.00;;;26.80;78.10;;;;;;5053144;28;20131;-72
2022/08/13 10:40:31;;;;;;;4.85;3.25;;;26.80;77.00;;;;;;5052918;28;20033;-73
2022/08/13 10:42:56;;;;;;;6.05;3.10;;;26.90;76.60;;;;;;5052702;28;20377;-73
2022/08/13 10:45:24;;;;;;;5.68;3.22;;;27.10;75.70;;;;;;5053619;28;20474;-72
2022/08/13 10:47:52;;;;;;;7.57;4.05;;;27.20;74.50;;;;;;5053490;28;20040;-73
2022/08/13 10:50:20;;;;;;;5.00;3.40;;;27.30;74.20;;;;;;5053735;28;20035;-72
2022/08/13 10:52:47;;;;;;;4.93;3.20;;;27.20;73.20;;;;;;5053634;28;20143;-71
2022/08/13 10:55:14;;;;;;;5.88;3.10;;;27.20;72.60;;;;;;5052957;28;20021;-72
2022/08/13 10:57:42;;;;;;;6.07;3.30;;;27.30;73.10;;;;;;5053049;28;20033;-72
2022/08/13 11:00:11;;;;;;;6.93;3.53;;;27.50;72.30;;;;;;5054864;28;20079;-71
2022/08/13 11:02:37;;;;;;;5.32;3.13;;;27.70;71.50;;;;;;5056591;28;20040;-73
2022/08/13 11:05:07;;;;;;;5.80;3.10;;;27.80;71.50;;;;;;5053890;28;20025;-72
2022/08/13 11:07:37;;;;;;;5.07;3.22;;;28.00;70.90;;;;;;5053098;28;20107;-72
2022/08/13 11:10:05;;;;;;;6.03;3.50;;;28.10;70.00;;;;;;5053333;28;20028;-73
2022/08/13 11:12:31;;;;;;;6.80;3.20;;;28.20;68.80;;;;;;5053205;28;20029;-72
2022/08/13 11:14:57;;;;;;;5.80;2.95;;;28.30;67.90;;;;;;5052588;28;20108;-72
2022/08/13 11:17:22;;;;;;;6.18;3.00;;;28.40;67.40;;;;;;5052611;28;20488;-72
2022/08/13 11:19:49;;;;;;;5.70;2.90;;;28.60;66.00;;;;;;5052286;28;20051;-71
2022/08/13 11:22:16;;;;;;;4.25;2.83;;;28.50;64.50;;;;;;5051222;28;20052;-72
2022/08/13 11:24:42;;;;;;;4.60;2.65;;;28.50;64.80;;;;;;5051030;28;20378;-71
2022/08/13 11:27:08;;;;;;;5.43;3.05;;;28.50;64.40;;;;;;5052406;28;20031;-71
2022/08/13 11:29:34;;;;;;;5.72;3.30;;;28.50;64.40;;;;;;5052762;28;20040;-71
2022/08/13 11:32:00;;;;;;;6.03;3.00;;;28.30;64.60;;;;;;5052308;28;20063;-72
2022/08/13 11:34:25;;;;;;;4.20;2.70;;;28.30;64.60;;;;;;5052637;28;20056;-71
2022/08/13 11:36:52;;;;;;;7.63;3.35;;;28.30;64.30;;;;;;5052564;28;20040;-73
2022/08/13 11:39:19;;;;;;;6.70;2.92;;;28.50;64.40;;;;;;5051041;28;20506;-73
2022/08/13 11:41:45;;;;;;;6.20;2.85;;;28.50;62.10;;;;;;5052252;28;20029;-72
2022/08/13 11:44:11;;;;;;;3.60;2.47;;;28.60;62.90;;;;;;5052465;28;20427;-71
2022/08/13 11:46:40;;;;;;;3.38;2.30;;;28.60;61.70;;;;;;5052428;28;20032;-72
2022/08/13 11:49:06;;;;;;;3.67;2.60;;;28.80;61.60;;;;;;5052464;28;20025;-71
2022/08/13 11:51:32;;;;;;;4.97;2.70;;;29.00;61.30;;;;;;5056429;28;20050;-72
2022/08/13 11:53:58;;;;;;;5.00;2.58;;;29.00;60.10;;;;;;5056429;28;20017;-72
2022/08/13 11:56:24;;;;;;;3.25;2.15;;;29.00;58.90;;;;;;5054686;28;20041;-73
2022/08/13 11:58:54;;;;;;;5.32;3.08;;;29.10;59.00;;;;;;5056379;28;20021;-72
2022/08/13 12:01:25;;;;;;;3.75;2.50;;;29.20;58.80;;;;;;5054796;28;20390;-71
2022/08/13 12:03:53;;;;;;;5.25;2.60;;;29.30;57.30;;;;;;5056150;28;20028;-73
2022/08/13 12:06:19;;;;;;;4.28;2.28;;;29.40;58.80;;;;;;5056024;28;20083;-73
2022/08/13 12:08:45;;;;;;;4.60;2.55;;;29.40;58.20;;;;;;5055879;28;20381;-73
2022/08/13 12:11:11;;;;;;;4.32;3.00;;;29.30;58.90;;;;;;5056098;28;20501;-72
2022/08/13 12:13:36;;;;;;;6.93;2.60;;;29.40;58.90;;;;;;5056257;28;20021;-72
2022/08/13 12:16:02;;;;;;;4.03;2.65;;;29.50;59.10;;;;;;5056228;28;20029;-72
2022/08/13 12:18:28;;;;;;;5.47;2.83;;;29.50;59.10;;;;;;5055988;28;20021;-72
2022/08/13 12:20:54;;;;;;;4.15;2.88;;;29.60;58.90;;;;;;5055592;28;20022;-72
2022/08/13 12:23:19;;;;;;;5.20;2.97;;;29.80;58.40;;;;;;5056084;28;20051;-74
2022/08/13 12:25:45;;;;;;;6.43;3.15;;;30.00;58.00;;;;;;5055676;28;20075;-72
2022/08/13 12:28:20;;;;;;;5.28;2.58;;;30.20;57.50;;;;;;5054479;28;20029;-72
2022/08/13 12:30:52;;;;;;;4.20;2.70;;;30.40;56.40;;;;;;5055940;28;20025;-73
2022/08/13 12:33:19;;;;;;;3.37;2.40;;;30.50;56.70;;;;;;5055511;28;20025;-71
2022/08/13 12:35:45;;;;;;;5.47;2.75;;;30.70;56.40;;;;;;5055243;28;20029;-72
2022/08/13 12:38:13;;;;;;;3.60;2.47;;;30.70;55.50;;;;;;5055684;28;20417;-72
2022/08/13 12:40:41;;;;;;;2.42;1.85;;;30.60;55.20;;;;;;5055299;28;20029;-72
2022/08/13 12:43:07;;;;;;;5.45;2.40;;;30.60;55.30;;;;;;5055295;28;20017;-72
2022/08/13 12:45:35;;;;;;;2.75;2.13;;;30.60;54.60;;;;;;5055356;28;20040;-72
2022/08/13 12:48:08;;;;;;;3.17;2.30;;;30.80;54.70;;;;;;5055227;28;20048;-72
2022/08/13 12:50:36;;;;;;;4.75;2.40;;;30.70;53.80;;;;;;5055437;28;20146;-71
2022/08/13 12:53:02;;;;;;;4.90;3.30;;;30.60;53.70;;;;;;5053589;28;20021;-72
2022/08/13 12:55:29;;;;;;;4.82;2.90;;;30.60;53.30;;;;;;5053419;28;20119;-73
2022/08/13 12:57:55;;;;;;;4.10;2.20;;;30.30;53.40;;;;;;5055079;28;20359;-74
2022/08/13 13:00:22;;;;;;;3.75;2.30;;;30.30;53.90;;;;;;5053631;28;20059;-72
2022/08/13 13:02:48;;;;;;;3.67;2.63;;;30.30;54.00;;;;;;5055165;28;20035;-73
2022/08/13 13:05:15;;;;;;;4.13;2.38;;;30.30;53.50;;;;;;5055015;28;20437;-71
2022/08/13 13:07:42;;;;;;;3.83;2.30;;;30.40;53.90;;;;;;5054684;28;20028;-72
2022/08/13 13:10:09;;;;;;;3.30;2.53;;;30.30;53.60;;;;;;5053820;28;20021;-73
2022/08/13 13:12:35;;;;;;;4.65;2.50;;;30.30;53.00;;;;;;5055157;28;20044;-73